Main page
METAR-TAF:

METAR-TAF

Airports :

Chernivtsi International Airport

Chernivtsi, Ukraine

latitude: 48-15-36N, longitude: 025-58-54E, elevation: 252 m

Current weather observation

The report was made 1 hour and 46 minutes ago, at 19:30 UTC
Wind 12 kt from the West/Northwest, varying between West/Southwest and North/Northwest
Temperature 5°C
Humidity 38%
Pressure 1030 hPa
Visibility 10 km or more
no clouds below 1500 m and no cumulonimbus

METAR: UKLN 211930Z 29006MPS 250V340 CAVOK 05/M08 Q1030 R33/09//70 NOSIG

Time: 23:16 (21:16 UTC)

Forecast

The report was made 4 hours and 13 minutes ago, at 17:03 UTC
Forecast valid from 21 at 18 UTC to 22 at 03 UTC
Wind 10 kt from the West/Northwest
Visibility 10 km or more
Broken clouds at a height of 3300 ft
Temporary
from 21 at 20 UTC to 22 at 03 UTC
Wind 16 kt from the Northwest with gusts up to 25 kt

TAF: UKLN 211703Z 2118/2203 29005MPS 9999 BKN033 TX06/2117Z TNM02/2203Z TEMPO 2120/2203 32008G13MPS

Weather observations and forecasts of more than 4000 airports (METAR and TAF reports).

The available stations are represented by yellow and red dots on the map.

Hover mouse over dot to see the name of the station.

Then click to see weather observations and forecasts.

To change the map : click on the green buttons with a black cross to zoom in, on the green button with a dash to zoom out, or on the green arrows for adjacent maps.


METAR-TAF: